createdAt,value
2023-04-08T00:00:10.589Z,74.08
2023-04-08T00:02:59.534Z,73.70
2023-04-08T00:05:28.920Z,74.34
2023-04-08T00:07:57.681Z,74.29
2023-04-08T00:10:27.472Z,74.72
2023-04-08T00:12:56.528Z,74.53
2023-04-08T00:15:27.249Z,74.74
2023-04-08T00:17:56.399Z,74.44
2023-04-08T00:20:26.410Z,74.13
2023-04-08T00:22:55.293Z,74.41
2023-04-08T00:25:25.503Z,74.37
2023-04-08T00:27:54.611Z,74.45
2023-04-08T00:30:23.655Z,74.96
2023-04-08T00:32:53.976Z,75.13
2023-04-08T00:35:23.509Z,75.03
2023-04-08T00:37:52.292Z,75.00
2023-04-08T00:40:21.659Z,75.24
2023-04-08T00:42:50.419Z,75.39
2023-04-08T00:45:19.495Z,75.41
2023-04-08T00:47:52.793Z,75.13
2023-04-08T00:50:23.633Z,75.26
2023-04-08T00:52:52.479Z,74.70
2023-04-08T00:55:21.769Z,75.14
2023-04-08T00:57:50.959Z,75.12
2023-04-08T01:00:20.162Z,74.91
2023-04-08T01:03:01.605Z,74.77
2023-04-08T01:05:48.070Z,75.09
2023-04-08T01:08:19.793Z,74.31
2023-04-08T01:10:54.971Z,74.55
2023-04-08T01:13:29.627Z,74.70
2023-04-08T01:15:59.041Z,74.38
2023-04-08T01:18:30.205Z,73.92
2023-04-08T01:21:02.669Z,74.55
2023-04-08T01:23:42.206Z,74.62
2023-04-08T01:26:22.792Z,75.16
2023-04-08T01:28:57.565Z,74.87
2023-04-08T01:31:29.379Z,75.54
2023-04-08T01:34:02.791Z,75.19
2023-04-08T01:36:33.818Z,75.28
2023-04-08T01:39:06.775Z,75.20
2023-04-08T01:41:39.454Z,75.59
2023-04-08T01:44:08.463Z,75.28
2023-04-08T01:46:38.470Z,75.64
2023-04-08T01:49:09.515Z,75.39
2023-04-08T01:51:40.185Z,75.52
2023-04-08T01:54:09.109Z,76.32
2023-04-08T01:56:43.505Z,76.84
2023-04-08T01:59:16.900Z,77.16
2023-04-08T02:01:48.734Z,77.13
2023-04-08T02:04:17.929Z,77.65
2023-04-08T02:06:48.412Z,78.05
2023-04-08T02:09:17.195Z,77.86
2023-04-08T02:11:47.592Z,78.16
2023-04-08T02:14:16.566Z,78.25
2023-04-08T02:16:54.995Z,78.29
2023-04-08T02:19:31.605Z,79.00
2023-04-08T02:22:10.024Z,78.88
2023-04-08T02:24:41.942Z,79.21
2023-04-08T02:27:13.255Z,79.86
2023-04-08T02:29:43.978Z,80.34
2023-04-08T02:32:16.171Z,80.63
2023-04-08T02:34:45.875Z,80.87
2023-04-08T02:37:14.987Z,80.67
2023-04-08T02:39:43.767Z,80.79
2023-04-08T02:42:15.188Z,80.93
2023-04-08T02:44:43.992Z,80.99
2023-04-08T02:47:13.098Z,81.04
2023-04-08T02:49:41.868Z,80.79
2023-04-08T02:52:10.902Z,80.62
2023-04-08T02:54:39.674Z,81.20
2023-04-08T02:57:08.772Z,81.43
2023-04-08T02:59:39.169Z,81.69
2023-04-08T03:02:08.380Z,81.61
2023-04-08T03:04:37.224Z,82.26
2023-04-08T03:07:08.120Z,82.65
2023-04-08T03:09:37.638Z,83.17
2023-04-08T03:12:07.002Z,83.10
2023-04-08T03:14:35.974Z,83.53
2023-04-08T03:17:06.309Z,83.71
2023-04-08T03:19:35.247Z,83.56
2023-04-08T03:22:04.247Z,84.09
2023-04-08T03:24:33.104Z,84.06
2023-04-08T03:27:02.150Z,83.54
2023-04-08T03:29:30.888Z,83.35
2023-04-08T03:32:00.130Z,83.94
2023-04-08T03:34:30.380Z,83.71
2023-04-08T03:36:59.453Z,84.46
2023-04-08T03:39:28.211Z,84.88
2023-04-08T03:41:57.405Z,84.92
2023-04-08T03:44:26.168Z,85.26
2023-04-08T03:46:55.409Z,84.83
2023-04-08T03:49:24.114Z,85.23
2023-04-08T03:51:54.545Z,84.78
2023-04-08T03:54:23.347Z,85.36
2023-04-08T03:56:52.406Z,85.05
2023-04-08T03:59:21.301Z,85.67
2023-04-08T04:01:51.451Z,85.45
2023-04-08T04:04:20.760Z,85.80
2023-04-08T04:06:49.999Z,85.71
2023-04-08T04:09:20.388Z,85.50
2023-04-08T04:11:49.519Z,85.21
2023-04-08T04:14:18.216Z,85.04
2023-04-08T04:16:47.273Z,85.41
2023-04-08T04:19:17.767Z,85.34
2023-04-08T04:21:47.431Z,85.46
2023-04-08T04:24:16.148Z,85.51
2023-04-08T04:26:46.645Z,85.63
2023-04-08T04:29:15.462Z,85.33
2023-04-08T04:31:44.528Z,86.13
2023-04-08T04:34:13.485Z,85.85
2023-04-08T04:36:42.627Z,86.05
2023-04-08T04:39:11.414Z,86.39
2023-04-08T04:41:40.743Z,86.42
2023-04-08T04:44:11.335Z,86.83
2023-04-08T04:46:40.572Z,87.51
2023-04-08T04:49:09.345Z,87.60
2023-04-08T04:51:38.397Z,87.26
2023-04-08T04:54:07.108Z,87.23
2023-04-08T04:56:36.123Z,87.76
2023-04-08T04:59:05.408Z,87.35
2023-04-08T05:01:36.248Z,87.48
2023-04-08T05:04:05.484Z,87.77
2023-04-08T05:06:34.978Z,87.24
2023-04-08T05:09:03.912Z,86.86
2023-04-08T05:11:32.975Z,86.40
2023-04-08T05:14:01.735Z,85.36
2023-04-08T05:16:31.071Z,85.29
2023-04-08T05:19:01.479Z,84.66
2023-04-08T05:21:30.691Z,84.52
2023-04-08T05:23:59.409Z,84.43
2023-04-08T05:26:28.533Z,83.78
2023-04-08T05:28:57.244Z,82.69
2023-04-08T05:31:26.428Z,82.15
2023-04-08T05:33:55.399Z,82.34
2023-04-08T05:36:26.438Z,81.87
2023-04-08T05:38:55.218Z,81.36
2023-04-08T05:41:24.212Z,79.98
2023-04-08T05:43:52.944Z,79.83
2023-04-08T05:46:22.026Z,79.24
2023-04-08T05:48:51.162Z,78.38
2023-04-08T05:51:20.549Z,78.37
2023-04-08T05:53:50.823Z,78.13
2023-04-08T05:56:19.942Z,78.30
2023-04-08T05:58:48.945Z,77.85
2023-04-08T06:01:18.161Z,76.28
2023-04-08T06:03:47.178Z,74.77
2023-04-08T06:06:16.534Z,72.98
2023-04-08T06:08:45.285Z,71.64
2023-04-08T06:11:15.801Z,71.70
2023-04-08T06:13:44.716Z,71.58
2023-04-08T06:16:15.902Z,72.20
2023-04-08T06:18:45.707Z,69.86
2023-04-08T06:21:14.842Z,68.31
2023-04-08T06:23:43.611Z,68.00
2023-04-08T06:26:13.338Z,69.20
2023-04-08T06:28:43.482Z,68.34
2023-04-08T06:31:12.891Z,69.52
2023-04-08T06:33:41.666Z,67.97
2023-04-08T06:36:13.267Z,67.74
2023-04-08T06:38:42.150Z,65.92
2023-04-08T06:41:11.318Z,65.82
2023-04-08T06:43:40.478Z,66.69
2023-04-08T06:46:11.421Z,66.00
2023-04-08T06:48:40.361Z,64.69
2023-04-08T06:51:09.658Z,64.38
2023-04-08T06:53:38.424Z,64.82
2023-04-08T06:56:07.712Z,64.60
2023-04-08T06:58:36.508Z,64.11
2023-04-08T07:01:05.861Z,63.40
2023-04-08T07:03:36.104Z,63.45
2023-04-08T07:06:05.638Z,62.77
2023-04-08T07:08:34.501Z,61.63
2023-04-08T07:11:03.645Z,61.18
2023-04-08T07:13:32.486Z,59.51
2023-04-08T07:16:01.468Z,56.54
2023-04-08T07:18:30.852Z,56.42
2023-04-08T07:21:02.069Z,57.23
2023-04-08T07:23:31.110Z,55.91
2023-04-08T07:26:04.505Z,56.89
2023-04-08T07:28:33.690Z,55.30
2023-04-08T07:31:12.803Z,56.51
2023-04-08T07:33:41.949Z,56.57
2023-04-08T07:36:14.428Z,56.50
2023-04-08T07:38:43.276Z,57.02
2023-04-08T07:41:12.298Z,55.69
2023-04-08T07:43:41.154Z,54.04
2023-04-08T07:46:10.724Z,55.00
2023-04-08T07:48:39.781Z,55.44
2023-04-08T07:51:11.875Z,54.74
2023-04-08T07:53:41.431Z,53.68
2023-04-08T07:56:15.665Z,54.73
2023-04-08T07:58:44.797Z,54.29
2023-04-08T08:01:20.077Z,53.89
2023-04-08T08:03:49.803Z,52.86
2023-04-08T08:06:20.911Z,54.15
2023-04-08T08:08:49.911Z,54.00
2023-04-08T08:11:19.050Z,52.80
2023-04-08T08:13:47.981Z,51.73
2023-04-08T08:16:17.088Z,51.99
2023-04-08T08:18:46.055Z,52.37
2023-04-08T08:21:15.335Z,52.34
2023-04-08T08:23:45.576Z,51.25
2023-04-08T08:26:14.732Z,52.22
2023-04-08T08:28:43.473Z,51.47
2023-04-08T08:31:12.573Z,50.79
2023-04-08T08:33:41.368Z,52.08
2023-04-08T08:36:10.524Z,51.13
2023-04-08T08:38:39.252Z,50.80
2023-04-08T08:41:09.748Z,49.16
2023-04-08T08:43:39.697Z,48.96
2023-04-08T08:46:12.864Z,49.52
2023-04-08T08:48:41.760Z,49.77
2023-04-08T08:51:11.946Z,49.98
2023-04-08T08:53:45.200Z,49.89
2023-04-08T08:56:18.726Z,48.44
2023-04-08T08:58:49.307Z,48.85
2023-04-08T09:01:36.436Z,48.34
2023-04-08T09:04:16.923Z,48.63
2023-04-08T09:06:47.779Z,49.31
2023-04-08T09:09:16.637Z,47.71
2023-04-08T09:11:48.499Z,47.58
2023-04-08T09:14:25.613Z,46.67
2023-04-08T09:16:55.064Z,47.13
2023-04-08T09:19:23.928Z,46.23
2023-04-08T09:22:10.124Z,46.11
2023-04-08T09:24:39.659Z,44.44
2023-04-08T09:27:10.084Z,43.95
2023-04-08T09:29:40.011Z,43.75
2023-04-08T09:32:09.355Z,42.93
2023-04-08T09:34:38.139Z,41.77
2023-04-08T09:37:07.375Z,41.63
2023-04-08T09:39:36.606Z,41.60
2023-04-08T09:42:13.029Z,41.96
2023-04-08T09:44:47.853Z,41.34
2023-04-08T09:47:26.964Z,41.04
2023-04-08T09:50:03.113Z,40.83
2023-04-08T09:52:40.287Z,40.96
2023-04-08T09:55:13.948Z,39.89
2023-04-08T09:57:53.937Z,40.79
2023-04-08T10:00:29.971Z,41.94
2023-04-08T10:03:11.478Z,39.72
2023-04-08T10:05:43.451Z,38.21
2023-04-08T10:08:12.790Z,39.84
2023-04-08T10:10:44.079Z,38.79
2023-04-08T10:13:16.745Z,37.93
2023-04-08T10:15:47.644Z,37.16
2023-04-08T10:18:37.054Z,36.11
2023-04-08T10:21:06.504Z,35.76
2023-04-08T10:24:01.516Z,35.78
2023-04-08T10:26:44.993Z,34.00
2023-04-08T10:29:34.800Z,33.36
2023-04-08T10:32:03.928Z,31.50
2023-04-08T10:34:33.039Z,30.80
2023-04-08T10:37:03.079Z,30.94
2023-04-08T10:39:33.178Z,29.44
2023-04-08T10:42:04.209Z,28.97
2023-04-08T11:53:49.532Z,34.38
2023-04-08T11:56:20.404Z,34.52
2023-04-08T11:58:49.658Z,34.47
2023-04-08T12:01:19.016Z,36.41
2023-04-08T12:04:03.181Z,34.44
2023-04-08T12:06:32.496Z,36.00
2023-04-08T12:09:02.610Z,37.03
2023-04-08T12:11:31.752Z,35.70
2023-04-08T12:14:00.416Z,36.28
2023-04-08T12:16:29.666Z,35.96
2023-04-08T12:18:58.543Z,35.50
2023-04-08T12:21:28.200Z,36.45
2023-04-08T12:23:57.102Z,37.08
2023-04-08T12:26:28.175Z,38.71
2023-04-08T12:28:56.958Z,38.84
2023-04-08T12:31:27.829Z,38.49
2023-04-08T12:33:56.810Z,36.86
2023-04-08T12:36:27.291Z,37.48
2023-04-08T12:38:56.126Z,38.41
2023-04-08T12:41:25.175Z,38.52
2023-04-08T12:43:55.470Z,38.49
2023-04-08T12:46:24.554Z,38.11
2023-04-08T12:49:03.343Z,38.71
2023-04-08T12:51:33.376Z,38.33
2023-04-08T12:54:03.604Z,37.75
2023-04-08T12:56:33.960Z,37.77
2023-04-08T12:59:04.155Z,38.13
2023-04-08T13:01:33.315Z,39.00
2023-04-08T13:04:02.432Z,37.47
2023-04-08T13:06:32.077Z,38.07
2023-04-08T13:09:00.865Z,37.90
2023-04-08T13:11:29.906Z,37.94
2023-04-08T13:13:58.744Z,38.95
2023-04-08T13:16:29.669Z,38.47
2023-04-08T13:18:58.483Z,37.55
2023-04-08T13:21:28.170Z,37.64
2023-04-08T13:23:56.900Z,38.32
2023-04-08T13:26:26.636Z,38.14
2023-04-08T13:28:57.559Z,37.78
2023-04-08T13:31:28.788Z,39.17
2023-04-08T13:33:58.391Z,38.45
2023-04-08T13:36:28.710Z,39.54
2023-04-08T13:38:57.967Z,38.44
2023-04-08T13:41:28.257Z,38.96
2023-04-08T13:43:57.674Z,38.69
2023-04-08T13:46:28.278Z,39.10
2023-04-08T13:48:57.229Z,38.96
2023-04-08T13:51:27.403Z,38.33
2023-04-08T13:53:56.343Z,38.80
2023-04-08T13:56:25.602Z,38.12
2023-04-08T13:58:57.613Z,39.74
2023-04-08T14:01:28.529Z,39.06
2023-04-08T14:03:57.497Z,39.12
2023-04-08T14:06:26.699Z,39.39
2023-04-08T14:08:55.430Z,39.93
2023-04-08T14:11:24.587Z,39.39
2023-04-08T14:13:53.419Z,39.89
2023-04-08T14:16:22.685Z,39.94
2023-04-08T14:18:53.659Z,41.10
2023-04-08T14:21:23.063Z,40.63
2023-04-08T14:23:52.709Z,41.27
2023-04-08T14:26:22.197Z,39.99
2023-04-08T14:28:51.532Z,40.66
2023-04-08T14:31:20.879Z,40.90
2023-04-08T14:33:49.777Z,41.57
2023-04-08T14:36:20.542Z,42.26
2023-04-08T14:38:49.454Z,41.97
2023-04-08T14:41:18.652Z,42.99
2023-04-08T14:43:47.473Z,42.56
2023-04-08T14:46:16.829Z,42.27
2023-04-08T14:48:45.862Z,43.11
2023-04-08T14:51:14.991Z,43.16
2023-04-08T14:53:45.228Z,43.11
2023-04-08T14:56:14.715Z,43.01
2023-04-08T14:58:43.413Z,43.20
2023-04-08T15:01:12.446Z,42.48
2023-04-08T15:03:41.357Z,41.98
2023-04-08T15:06:10.995Z,42.54
2023-04-08T15:08:39.811Z,42.05
2023-04-08T15:11:10.428Z,43.20
2023-04-08T15:13:39.353Z,42.76
2023-04-08T15:16:08.627Z,43.24
2023-04-08T15:18:37.583Z,43.81
2023-04-08T15:21:07.174Z,44.47
2023-04-08T15:23:35.987Z,42.47
2023-04-08T15:26:05.307Z,43.47
2023-04-08T15:28:37.908Z,44.32
2023-04-08T15:31:07.328Z,43.97
2023-04-08T15:33:39.070Z,42.91
2023-04-08T15:36:09.041Z,43.09
2023-04-08T15:38:38.354Z,41.61
2023-04-08T15:41:07.437Z,41.25
2023-04-08T15:43:37.606Z,41.88
2023-04-08T15:46:06.876Z,41.84
2023-04-08T15:48:35.695Z,42.40
2023-04-08T15:51:08.671Z,43.23
2023-04-08T15:53:37.457Z,42.75
2023-04-08T15:56:07.599Z,43.18
2023-04-08T15:58:37.922Z,43.19
2023-04-08T16:01:07.143Z,43.48
2023-04-08T16:03:36.215Z,43.67
2023-04-08T16:06:06.239Z,43.14
2023-04-08T16:08:35.705Z,43.44
2023-04-08T16:11:08.175Z,43.75
2023-04-08T16:13:39.225Z,44.06
2023-04-08T16:16:08.906Z,44.25
2023-04-08T16:18:38.015Z,44.49
2023-04-08T16:21:07.987Z,45.08
2023-04-08T16:23:38.581Z,45.00
2023-04-08T16:26:08.835Z,45.38
2023-04-08T16:28:39.991Z,44.91
2023-04-08T16:31:09.224Z,45.27
2023-04-08T16:33:38.055Z,45.57
2023-04-08T16:36:07.576Z,45.36
2023-04-08T16:38:36.751Z,45.50
2023-04-08T16:41:09.946Z,45.58
2023-04-08T16:43:40.260Z,45.72
2023-04-08T16:46:13.445Z,44.79
2023-04-08T16:48:43.889Z,44.66
2023-04-08T16:51:13.475Z,45.09
2023-04-08T16:53:42.626Z,45.24
2023-04-08T16:56:15.832Z,45.38
2023-04-08T16:58:46.357Z,44.92
2023-04-08T17:01:15.657Z,45.21
2023-04-08T17:03:44.832Z,45.17
2023-04-08T17:06:15.246Z,45.53
2023-04-08T17:08:44.251Z,46.67
2023-04-08T17:11:15.650Z,46.73
2023-04-08T17:13:46.378Z,46.93
2023-04-08T17:16:17.500Z,47.48
2023-04-08T17:18:47.078Z,47.41
2023-04-08T17:21:16.138Z,47.03
2023-04-08T17:23:45.313Z,47.53
2023-04-08T17:26:14.638Z,47.58
2023-04-08T17:28:43.525Z,47.24
2023-04-08T17:31:13.994Z,47.02
2023-04-08T17:33:42.800Z,46.62
2023-04-08T17:36:12.139Z,45.69
2023-04-08T17:38:41.295Z,45.84
2023-04-08T17:41:13.414Z,47.05
2023-04-08T17:43:45.079Z,48.03
2023-04-08T17:46:15.775Z,49.19
2023-04-08T17:48:44.621Z,50.10
2023-04-08T17:51:13.736Z,49.76
2023-04-08T17:53:42.479Z,50.91
2023-04-08T17:56:11.979Z,51.67
2023-04-08T17:58:40.699Z,51.29
2023-04-08T18:01:09.789Z,51.62
2023-04-08T18:03:40.194Z,50.97
2023-04-08T18:06:09.541Z,50.61
2023-04-08T18:08:38.396Z,50.62
2023-04-08T18:11:07.919Z,50.91
2023-04-08T18:13:36.704Z,50.73
2023-04-08T18:16:06.469Z,50.64
2023-04-08T18:18:39.739Z,51.36
2023-04-08T18:21:10.031Z,52.10
2023-04-08T18:23:39.644Z,52.39
2023-04-08T18:26:09.401Z,53.70
2023-04-08T18:28:38.224Z,54.73
2023-04-08T18:31:07.772Z,55.81
2023-04-08T18:33:38.943Z,56.65
2023-04-08T18:36:12.329Z,59.19
2023-04-08T18:38:41.993Z,61.02
2023-04-08T18:41:11.636Z,63.04
2023-04-08T18:43:40.339Z,64.33
2023-04-08T18:46:09.551Z,65.65
2023-04-08T18:48:38.388Z,67.26
2023-04-08T18:51:07.979Z,69.39
2023-04-08T18:53:38.478Z,70.48
2023-04-08T18:56:14.768Z,71.13
2023-04-08T18:58:44.580Z,73.50
2023-04-08T19:01:14.378Z,74.27
2023-04-08T19:03:44.405Z,75.47
2023-04-08T19:06:14.620Z,76.25
2023-04-08T19:08:46.524Z,77.33
2023-04-08T19:11:17.352Z,78.15
2023-04-08T19:13:46.509Z,79.36
2023-04-08T19:16:15.640Z,80.66
2023-04-08T19:18:44.454Z,81.95
2023-04-08T19:21:13.536Z,82.61
2023-04-08T19:23:42.410Z,83.33
2023-04-08T19:26:12.892Z,83.69
2023-04-08T19:28:41.687Z,84.93
2023-04-08T19:31:17.306Z,85.35
2023-04-08T19:33:46.383Z,85.81
2023-04-08T19:36:15.596Z,85.92
2023-04-08T19:38:44.335Z,86.44
2023-04-08T19:41:14.645Z,87.06
2023-04-08T19:43:43.519Z,87.50
2023-04-08T19:46:12.588Z,87.99
2023-04-08T19:48:41.341Z,88.21
2023-04-08T19:51:15.729Z,88.90
2023-04-08T19:53:44.641Z,88.54
2023-04-08T19:56:16.411Z,88.86
2023-04-08T19:58:45.319Z,88.61
2023-04-08T20:01:14.736Z,88.50
2023-04-08T20:03:49.944Z,88.57
2023-04-08T20:06:20.538Z,88.55
2023-04-08T20:08:50.313Z,88.65
2023-04-08T20:11:21.307Z,88.40
2023-04-08T20:13:51.546Z,89.12
2023-04-08T20:16:22.009Z,89.38
2023-04-08T20:18:51.042Z,89.82
2023-04-08T20:21:20.399Z,90.00
2023-04-08T20:23:49.182Z,90.17
2023-04-08T20:26:18.349Z,90.38
2023-04-08T20:28:48.645Z,90.72
2023-04-08T20:31:19.308Z,90.67
2023-04-08T20:33:48.036Z,91.27
2023-04-08T20:36:17.187Z,91.31
2023-04-08T20:38:46.329Z,91.93
2023-04-08T20:41:20.443Z,92.29
2023-04-08T20:43:53.409Z,92.55
2023-04-08T20:46:22.676Z,92.72
2023-04-08T20:48:51.856Z,93.22
2023-04-08T20:51:21.464Z,93.16
2023-04-08T20:53:50.840Z,94.00
2023-04-08T20:56:19.864Z,94.01
2023-04-08T20:58:50.308Z,94.41
2023-04-08T21:01:19.773Z,93.71
2023-04-08T21:03:49.206Z,94.43
2023-04-08T21:06:19.113Z,94.45
2023-04-08T21:08:49.527Z,94.25
2023-04-08T21:11:19.080Z,94.62
2023-04-08T21:13:49.067Z,94.40
2023-04-08T21:16:19.788Z,94.62
2023-04-08T21:18:48.656Z,94.03
2023-04-08T21:21:17.651Z,94.29
2023-04-08T21:23:46.411Z,94.38
2023-04-08T21:26:15.539Z,94.31
2023-04-08T21:28:44.523Z,94.54
2023-04-08T21:31:14.731Z,94.78
2023-04-08T21:33:44.856Z,95.03
2023-04-08T21:36:14.016Z,94.86
2023-04-08T21:38:43.392Z,94.70
2023-04-08T21:41:12.464Z,94.98
2023-04-08T21:43:41.456Z,95.29
2023-04-08T21:46:10.679Z,95.11
2023-04-08T21:48:39.469Z,95.30
2023-04-08T21:51:09.816Z,94.81
2023-04-08T21:53:40.146Z,94.65
2023-04-08T21:56:09.452Z,94.93
2023-04-08T21:58:38.130Z,95.36
2023-04-08T22:01:07.695Z,95.06
2023-04-08T22:03:36.570Z,95.24
2023-04-08T22:06:12.762Z,95.68
2023-04-08T22:08:45.852Z,95.89
2023-04-08T22:11:14.938Z,95.86
2023-04-08T22:13:43.719Z,95.95
2023-04-08T22:16:12.884Z,95.94
2023-04-08T22:18:41.573Z,96.50
2023-04-08T22:21:12.132Z,96.42
2023-04-08T22:23:40.895Z,96.44
2023-04-08T22:26:09.961Z,96.23
2023-04-08T22:28:38.603Z,96.36
2023-04-08T22:31:11.683Z,96.67
2023-04-08T22:33:41.617Z,96.68
2023-04-08T22:36:12.103Z,96.88
2023-04-08T22:38:41.043Z,97.18
2023-04-08T22:41:18.946Z,96.86
2023-04-08T22:43:47.996Z,97.07
2023-04-08T22:46:18.698Z,96.67
2023-04-08T22:48:47.751Z,96.71
2023-04-08T22:51:18.033Z,96.66
2023-04-08T22:53:46.794Z,96.13
2023-04-08T22:56:15.900Z,96.82
2023-04-08T22:58:44.674Z,97.11
2023-04-08T23:01:17.133Z,96.59
2023-04-08T23:03:46.490Z,96.36
2023-04-08T23:06:17.089Z,95.55
2023-04-08T23:08:46.116Z,95.36
2023-04-08T23:11:15.393Z,95.42
2023-04-08T23:13:44.105Z,94.91
2023-04-08T23:16:13.253Z,95.62
2023-04-08T23:18:41.974Z,95.14
2023-04-08T23:21:11.084Z,95.46
2023-04-08T23:23:41.205Z,95.29
2023-04-08T23:26:18.445Z,95.23
2023-04-08T23:28:47.382Z,94.96
2023-04-08T23:31:16.363Z,94.93
2023-04-08T23:33:45.001Z,95.07
2023-04-08T23:36:14.449Z,94.88
2023-04-08T23:38:44.505Z,94.90
2023-04-08T23:41:13.460Z,95.64
2023-04-08T23:43:42.358Z,95.52
2023-04-08T23:46:11.370Z,95.65
2023-04-08T23:48:40.121Z,96.06
2023-04-08T23:51:09.203Z,95.90
2023-04-08T23:53:37.893Z,96.14
2023-04-08T23:56:10.129Z,95.65
2023-04-08T23:58:38.937Z,95.85
